createdAt,value
2023-02-02T00:02:15.468Z,2.93
2023-02-02T00:04:42.678Z,2.93
2023-02-02T00:07:10.114Z,1.40
2023-02-02T00:09:37.380Z,2.17
2023-02-02T00:12:05.037Z,3.03
2023-02-02T00:14:33.642Z,1.73
2023-02-02T00:17:00.943Z,1.97
2023-02-02T00:19:29.931Z,2.40
2023-02-02T00:21:58.347Z,2.40
2023-02-02T00:24:25.687Z,2.80
2023-02-02T00:26:56.266Z,2.90
2023-02-02T00:29:25.675Z,2.40
2023-02-02T00:31:54.494Z,3.27
2023-02-02T00:34:22.296Z,3.10
2023-02-02T00:36:50.364Z,3.60
2023-02-02T00:39:19.470Z,1.90
2023-02-02T00:41:46.942Z,2.90
2023-02-02T00:44:14.636Z,2.20
2023-02-02T00:46:42.829Z,1.97
2023-02-02T00:49:11.468Z,2.10
2023-02-02T00:51:38.713Z,2.23
2023-02-02T00:54:06.440Z,2.57
2023-02-02T00:56:33.799Z,2.87
2023-02-02T00:59:01.204Z,2.47
2023-02-02T01:01:28.825Z,3.83
2023-02-02T01:03:56.096Z,2.27
2023-02-02T01:06:25.009Z,3.10
2023-02-02T01:08:52.653Z,2.90
2023-02-02T01:11:20.423Z,3.23
2023-02-02T01:13:47.864Z,3.73
2023-02-02T01:16:15.195Z,2.10
2023-02-02T01:18:43.273Z,2.70
2023-02-02T01:21:12.591Z,2.30
2023-02-02T01:23:41.267Z,3.70
2023-02-02T01:26:11.685Z,3.23
2023-02-02T01:28:40.038Z,2.63
2023-02-02T01:31:09.690Z,2.70
2023-02-02T01:33:37.478Z,2.83
2023-02-02T01:36:07.254Z,1.80
2023-02-02T01:38:34.643Z,3.30
2023-02-02T01:41:03.879Z,2.57
2023-02-02T01:43:50.919Z,2.50
2023-02-02T01:46:20.012Z,2.30
2023-02-02T01:48:51.308Z,2.83
2023-02-02T01:51:21.169Z,2.93
2023-02-02T01:53:50.874Z,3.10
2023-02-02T01:56:24.878Z,3.40
2023-02-02T01:58:52.925Z,2.70
2023-02-02T02:01:20.349Z,3.57
2023-02-02T02:03:47.840Z,2.53
2023-02-02T02:06:18.301Z,1.43
2023-02-02T02:08:50.789Z,3.70
2023-02-02T02:11:20.138Z,1.90
2023-02-02T02:13:47.688Z,1.70
2023-02-02T02:16:21.767Z,2.30
2023-02-02T02:19:01.580Z,3.27
2023-02-02T02:21:49.091Z,2.90
2023-02-02T02:24:49.774Z,3.13
2023-02-02T02:27:50.134Z,2.30
2023-02-02T02:30:47.329Z,1.83
2023-02-02T02:33:25.617Z,3.27
2023-02-02T02:36:03.002Z,1.97
2023-02-02T02:38:37.342Z,2.43
2023-02-02T02:41:10.677Z,2.93
2023-02-02T02:43:43.422Z,3.10
2023-02-02T02:46:12.406Z,3.43
2023-02-02T02:48:44.129Z,2.80
2023-02-02T02:51:42.424Z,3.07
2023-02-02T02:54:13.653Z,1.87
2023-02-02T02:56:50.418Z,3.30
2023-02-02T02:59:26.543Z,3.10
2023-02-02T03:02:04.383Z,3.30
2023-02-02T03:04:42.641Z,2.57
2023-02-02T03:07:16.171Z,3.13
2023-02-02T03:09:47.179Z,3.10
2023-02-02T03:12:16.889Z,3.03
2023-02-02T03:14:44.190Z,2.50
2023-02-02T03:17:11.662Z,2.90
2023-02-02T03:19:40.328Z,3.40
2023-02-02T03:22:07.741Z,2.77
2023-02-02T03:24:34.984Z,3.93
2023-02-02T03:27:02.424Z,3.53
2023-02-02T03:29:29.797Z,2.97
2023-02-02T03:31:57.134Z,2.27
2023-02-02T03:34:24.526Z,2.53
2023-02-02T03:36:53.188Z,2.37
2023-02-02T03:39:20.505Z,3.43
2023-02-02T03:41:47.836Z,3.30
2023-02-02T03:44:15.099Z,2.50
2023-02-02T03:46:42.441Z,2.77
2023-02-02T03:49:09.621Z,2.43
2023-02-02T03:51:36.872Z,2.40
2023-02-02T03:54:05.592Z,3.00
2023-02-02T03:56:32.908Z,4.20
2023-02-02T03:59:00.148Z,2.70
2023-02-02T04:01:29.096Z,3.87
2023-02-02T04:03:57.087Z,2.03
2023-02-02T04:06:25.248Z,3.43
2023-02-02T04:08:52.814Z,2.80
2023-02-02T04:11:21.540Z,5.20
2023-02-02T04:13:48.817Z,3.33
2023-02-02T04:16:16.172Z,2.30
2023-02-02T04:18:43.513Z,2.77
2023-02-02T04:21:10.847Z,4.77
2023-02-02T04:23:38.297Z,3.13
2023-02-02T04:26:06.112Z,4.10
2023-02-02T04:28:35.121Z,2.47
2023-02-02T04:31:02.549Z,3.57
2023-02-02T04:33:29.900Z,3.20
2023-02-02T04:35:57.185Z,2.20
2023-02-02T04:38:24.661Z,3.40
2023-02-02T04:40:52.016Z,2.70
2023-02-02T04:43:19.234Z,3.80
2023-02-02T04:45:47.943Z,2.67
2023-02-02T04:48:15.235Z,3.50
2023-02-02T04:50:42.562Z,2.83
2023-02-02T04:53:09.920Z,3.43
2023-02-02T04:55:37.819Z,2.83
2023-02-02T04:58:05.409Z,3.30
2023-02-02T05:00:33.091Z,5.03
2023-02-02T05:03:01.769Z,2.50
2023-02-02T05:05:29.057Z,4.43
2023-02-02T05:07:56.419Z,3.13
2023-02-02T05:10:23.930Z,4.20
2023-02-02T05:12:52.770Z,4.43
2023-02-02T05:15:20.526Z,2.40
2023-02-02T05:17:47.966Z,2.77
2023-02-02T05:20:17.025Z,3.10
2023-02-02T05:22:44.277Z,2.90
2023-02-02T05:25:11.599Z,5.00
2023-02-02T05:27:38.861Z,4.57
2023-02-02T05:30:07.624Z,3.40
2023-02-02T05:32:34.880Z,2.40
2023-02-02T05:35:02.156Z,3.20
2023-02-02T05:37:30.839Z,3.57
2023-02-02T05:39:58.253Z,3.37
2023-02-02T05:42:25.484Z,3.77
2023-02-02T05:44:52.789Z,3.00
2023-02-02T05:47:20.108Z,3.83
2023-02-02T05:49:47.567Z,3.00
2023-02-02T05:52:18.038Z,3.73
2023-02-02T05:54:46.763Z,2.80
2023-02-02T05:57:14.081Z,4.10
2023-02-02T05:59:41.511Z,2.97
2023-02-02T06:02:08.745Z,5.03
2023-02-02T06:04:36.068Z,3.50
2023-02-02T06:07:03.320Z,2.80
2023-02-02T06:09:30.570Z,3.13
2023-02-02T06:11:59.185Z,3.40
2023-02-02T06:14:26.664Z,3.73
2023-02-02T06:16:53.857Z,4.30
2023-02-02T06:19:21.213Z,3.17
2023-02-02T06:21:48.562Z,3.03
2023-02-02T06:24:15.860Z,2.47
2023-02-02T06:26:43.116Z,3.43
2023-02-02T06:29:13.597Z,3.67
2023-02-02T06:31:40.929Z,6.63
2023-02-02T06:34:11.164Z,3.77
2023-02-02T06:36:38.478Z,4.40
2023-02-02T06:39:05.812Z,3.63
2023-02-02T06:41:33.257Z,3.30
2023-02-02T06:44:01.547Z,3.00
2023-02-02T06:46:30.623Z,3.00
2023-02-02T06:48:58.061Z,4.20
2023-02-02T06:51:25.497Z,4.43
2023-02-02T06:53:52.776Z,3.63
2023-02-02T06:56:20.100Z,8.60
2023-02-02T06:58:47.459Z,3.50
2023-02-02T07:01:14.833Z,3.83
2023-02-02T07:03:43.561Z,3.50
2023-02-02T07:06:16.388Z,3.10
2023-02-02T07:08:44.317Z,4.00
2023-02-02T07:11:15.513Z,4.63
2023-02-02T07:13:43.803Z,3.87
2023-02-02T07:16:11.103Z,5.20
2023-02-02T07:18:38.881Z,5.60
2023-02-02T07:21:07.508Z,3.83
2023-02-02T07:23:34.861Z,2.70
2023-02-02T07:26:03.757Z,3.07
2023-02-02T07:28:31.741Z,3.63
2023-02-02T07:30:59.081Z,4.13
2023-02-02T07:33:26.472Z,4.70
2023-02-02T07:35:53.801Z,4.37
2023-02-02T07:38:22.515Z,4.53
2023-02-02T07:40:49.826Z,4.10
2023-02-02T07:43:17.150Z,4.00
2023-02-02T07:45:44.467Z,3.83
2023-02-02T07:48:11.761Z,5.00
2023-02-02T07:50:38.962Z,4.10
2023-02-02T07:53:06.200Z,4.83
2023-02-02T07:55:34.894Z,4.63
2023-02-02T07:58:02.284Z,4.50
2023-02-02T08:00:29.554Z,6.13
2023-02-02T08:02:56.953Z,3.70
2023-02-02T08:05:24.677Z,4.63
2023-02-02T08:07:52.115Z,3.53
2023-02-02T08:10:19.634Z,3.20
2023-02-02T08:12:48.297Z,3.87
2023-02-02T08:15:15.745Z,3.17
2023-02-02T08:17:45.711Z,2.83
2023-02-02T08:20:13.537Z,4.80
2023-02-02T08:22:40.840Z,4.83
2023-02-02T08:25:09.051Z,5.13
2023-02-02T08:27:37.924Z,4.20
2023-02-02T08:30:07.822Z,4.60
2023-02-02T08:32:35.203Z,3.83
2023-02-02T08:35:02.571Z,3.90
2023-02-02T08:37:29.837Z,4.13
2023-02-02T08:39:57.074Z,3.50
2023-02-02T08:42:24.747Z,3.87
2023-02-02T08:46:01.857Z,3.30
2023-02-02T08:47:40.826Z,2.63
2023-02-02T08:50:09.662Z,3.67
2023-02-02T08:52:37.001Z,4.03
2023-02-02T08:55:05.096Z,2.80
2023-02-02T08:57:32.401Z,3.57
2023-02-02T08:59:59.633Z,3.50
2023-02-02T09:02:27.034Z,4.20
2023-02-02T09:04:55.818Z,4.00
2023-02-02T09:07:23.168Z,3.40
2023-02-02T09:09:50.518Z,3.50
2023-02-02T09:12:17.848Z,5.10
2023-02-02T09:14:45.080Z,3.37
2023-02-02T09:17:12.389Z,4.50
2023-02-02T09:19:39.628Z,3.43
2023-02-02T09:22:08.247Z,3.77
2023-02-02T09:24:35.610Z,4.70
2023-02-02T09:27:03.031Z,2.80
2023-02-02T09:29:30.315Z,3.87
2023-02-02T09:31:57.681Z,2.90
2023-02-02T09:34:25.050Z,3.10
2023-02-02T09:36:52.365Z,4.47
2023-02-02T09:39:21.036Z,4.43
2023-02-02T09:42:42.115Z,4.07
2023-02-02T09:45:16.644Z,3.53
2023-02-02T09:47:53.265Z,4.10
2023-02-02T09:50:30.680Z,4.83
2023-02-02T09:53:03.087Z,2.57
2023-02-02T09:55:36.640Z,2.47
2023-02-02T09:58:11.802Z,3.47
2023-02-02T10:00:44.877Z,3.00
2023-02-02T10:03:19.127Z,3.43
2023-02-02T10:06:02.136Z,3.83
2023-02-02T10:08:36.257Z,3.87
2023-02-02T10:11:27.408Z,3.70
2023-02-02T10:13:59.738Z,3.50
2023-02-02T10:16:27.439Z,3.33
2023-02-02T10:19:01.289Z,3.33
2023-02-02T10:21:34.817Z,2.90
2023-02-02T10:24:03.338Z,3.77
2023-02-02T10:26:37.307Z,2.87
2023-02-02T10:29:15.048Z,3.00
2023-02-02T10:31:48.686Z,2.67
2023-02-02T10:34:21.934Z,3.23
2023-02-02T10:37:07.923Z,2.63
2023-02-02T10:39:46.729Z,3.10
2023-02-02T10:42:29.501Z,2.50
2023-02-02T10:45:00.211Z,3.10
2023-02-02T10:47:29.871Z,3.03
2023-02-02T10:50:07.815Z,2.00
2023-02-02T10:52:35.150Z,2.60
2023-02-02T10:55:10.718Z,2.90
2023-02-02T10:57:56.961Z,4.13
2023-02-02T11:00:29.447Z,3.13
2023-02-02T11:03:00.411Z,2.60
2023-02-02T11:05:29.395Z,3.07
2023-02-02T11:07:57.052Z,3.10
2023-02-02T11:10:25.433Z,3.03
2023-02-02T11:12:55.184Z,3.40
2023-02-02T11:15:26.125Z,3.60
2023-02-02T11:17:53.602Z,3.70
2023-02-02T11:20:32.309Z,3.30
2023-02-02T11:23:01.060Z,3.47
2023-02-02T11:25:31.462Z,3.77
2023-02-02T11:28:01.710Z,3.00
2023-02-02T11:30:33.825Z,2.63
2023-02-02T11:33:21.016Z,2.80
2023-02-02T11:35:54.289Z,3.23
2023-02-02T11:38:21.761Z,3.67
2023-02-02T11:40:55.096Z,2.60
2023-02-02T11:43:29.224Z,2.50
2023-02-02T11:46:02.578Z,3.40
2023-02-02T11:48:35.360Z,2.67
2023-02-02T11:51:04.155Z,4.50
2023-02-02T11:53:33.432Z,2.93
2023-02-02T11:56:05.738Z,4.30
2023-02-02T11:58:46.048Z,4.00
2023-02-02T12:01:25.207Z,3.23
2023-02-02T12:03:54.179Z,3.60
2023-02-02T12:06:23.235Z,3.63
2023-02-02T12:08:54.910Z,3.30
2023-02-02T12:11:34.087Z,3.80
2023-02-02T12:14:17.602Z,3.17
2023-02-02T12:17:01.580Z,3.90
2023-02-02T12:19:52.516Z,3.17
2023-02-02T12:22:39.770Z,4.70
2023-02-02T12:25:31.236Z,3.60
2023-02-02T12:28:05.591Z,4.50
2023-02-02T12:30:39.961Z,4.60
2023-02-02T12:33:18.783Z,3.10
2023-02-02T12:35:56.835Z,3.43
2023-02-02T12:38:41.856Z,3.57
2023-02-02T12:41:22.402Z,3.60
2023-02-02T12:43:57.386Z,2.90
2023-02-02T12:46:44.058Z,5.20
2023-02-02T12:49:29.153Z,5.70
2023-02-02T12:52:13.304Z,3.80
2023-02-02T12:54:59.338Z,4.43
2023-02-02T12:57:42.965Z,3.67
2023-02-02T13:00:24.100Z,4.43
2023-02-02T13:03:05.268Z,2.83
2023-02-02T13:05:55.892Z,2.87
2023-02-02T13:08:29.617Z,4.70
2023-02-02T13:11:03.872Z,4.10
2023-02-02T13:13:36.697Z,3.70
2023-02-02T13:16:08.557Z,3.60
2023-02-02T13:18:44.128Z,3.47
2023-02-02T13:21:14.730Z,4.90
2023-02-02T13:23:46.464Z,3.80
2023-02-02T13:26:18.868Z,2.37
2023-02-02T13:28:52.446Z,3.07
2023-02-02T13:31:25.743Z,3.00
2023-02-02T13:34:04.913Z,3.10
2023-02-02T13:36:35.398Z,3.53
2023-02-02T13:39:13.186Z,3.07
2023-02-02T13:41:41.365Z,2.90
2023-02-02T13:44:15.433Z,4.47
2023-02-02T13:46:50.157Z,4.10
2023-02-02T13:49:23.598Z,2.40
2023-02-02T13:51:58.023Z,3.33
2023-02-02T13:55:10.664Z,3.20
2023-02-02T14:00:40.453Z,5.00
2023-02-02T14:03:27.030Z,2.17
2023-02-02T14:06:07.542Z,2.43
2023-02-02T14:08:35.761Z,3.00
2023-02-02T14:11:05.805Z,2.57
2023-02-02T14:13:42.396Z,2.77
2023-02-02T14:16:22.119Z,2.63
2023-02-02T14:18:56.082Z,2.53
2023-02-02T14:21:56.867Z,2.23
2023-02-02T14:24:44.274Z,2.30
2023-02-02T14:28:00.363Z,3.17
2023-02-02T14:30:33.910Z,2.20
2023-02-02T14:33:41.105Z,2.20
2023-02-02T14:36:14.803Z,2.93
2023-02-02T14:39:08.948Z,2.23
2023-02-02T14:42:10.255Z,2.50
2023-02-02T14:44:57.540Z,2.10
2023-02-02T14:47:49.148Z,3.00
2023-02-02T14:50:21.127Z,3.03
2023-02-02T14:52:58.675Z,2.17
2023-02-02T14:55:27.282Z,2.50
2023-02-02T14:57:59.216Z,2.37
2023-02-02T15:00:30.404Z,3.30
2023-02-02T15:03:36.476Z,2.80
2023-02-02T15:06:23.951Z,2.77
2023-02-02T15:09:24.351Z,2.80
2023-02-02T15:12:30.444Z,2.73
2023-02-02T15:15:07.358Z,2.80
2023-02-02T15:17:46.832Z,2.30
2023-02-02T15:20:18.909Z,2.80
2023-02-02T15:22:52.910Z,3.80
2023-02-02T15:25:24.172Z,3.00
2023-02-02T15:27:57.264Z,2.80
2023-02-02T15:30:28.623Z,3.00
2023-02-02T15:32:56.797Z,2.50
2023-02-02T15:35:30.032Z,2.93
2023-02-02T15:38:00.568Z,2.83
2023-02-02T15:40:30.988Z,2.97
2023-02-02T15:43:01.644Z,4.70
2023-02-02T15:45:41.921Z,3.50
2023-02-02T15:48:22.227Z,5.67
2023-02-02T15:50:51.279Z,4.20
2023-02-02T15:53:21.516Z,3.93
2023-02-02T15:55:49.290Z,4.40
2023-02-02T15:58:31.939Z,4.20
2023-02-02T16:01:03.206Z,3.80
2023-02-02T16:03:36.871Z,5.17
2023-02-02T16:06:06.874Z,5.33
2023-02-02T16:08:37.482Z,3.57
2023-02-02T16:11:08.653Z,4.57
2023-02-02T16:13:37.238Z,3.80
2023-02-02T16:16:20.337Z,4.07
2023-02-02T16:18:47.897Z,4.20
2023-02-02T16:21:24.906Z,6.37
2023-02-02T16:23:52.868Z,4.10
2023-02-02T16:26:25.395Z,4.37
2023-02-02T16:28:53.043Z,13.77
2023-02-02T16:31:21.900Z,7.47
2023-02-02T16:33:49.252Z,5.20
2023-02-02T16:36:25.149Z,4.57
2023-02-02T16:38:54.242Z,5.13
2023-02-02T16:41:29.601Z,4.03
2023-02-02T16:44:30.616Z,4.40
2023-02-02T16:47:00.124Z,4.33
2023-02-02T16:49:28.546Z,4.70
2023-02-02T16:52:14.670Z,4.40
2023-02-02T16:54:50.354Z,3.73
2023-02-02T16:57:21.827Z,5.47
2023-02-02T16:59:52.922Z,5.23
2023-02-02T17:02:27.625Z,4.40
2023-02-02T17:04:58.601Z,3.90
2023-02-02T17:07:26.766Z,4.70
2023-02-02T17:10:13.804Z,4.57
2023-02-02T17:12:41.147Z,5.47
2023-02-02T17:15:33.397Z,7.20
2023-02-02T17:18:04.581Z,5.20
2023-02-02T17:20:32.660Z,6.07
2023-02-02T17:23:03.002Z,4.20
2023-02-02T17:25:35.511Z,3.50
2023-02-02T17:28:06.277Z,2.97
2023-02-02T17:30:33.933Z,3.20
2023-02-02T17:33:01.400Z,3.10
2023-02-02T17:35:40.048Z,5.13
2023-02-02T17:38:14.815Z,3.97
2023-02-02T17:40:42.114Z,4.13
2023-02-02T17:43:11.562Z,3.87
2023-02-02T17:45:39.148Z,4.20
2023-02-02T17:48:06.658Z,5.20
2023-02-02T17:50:37.151Z,4.47
2023-02-02T17:53:04.882Z,4.60
2023-02-02T17:55:35.962Z,3.27
2023-02-02T17:58:03.412Z,5.90
2023-02-02T18:00:31.594Z,9.70
2023-02-02T18:03:04.575Z,16.43
2023-02-02T18:05:31.952Z,5.50
2023-02-02T18:08:00.503Z,4.17
2023-02-02T18:10:28.120Z,4.57
2023-02-02T18:12:55.503Z,4.37
2023-02-02T18:15:23.270Z,6.07
2023-02-02T18:17:50.783Z,4.77
2023-02-02T18:20:19.354Z,3.60
2023-02-02T18:22:46.538Z,6.00
2023-02-02T18:25:15.422Z,5.30
2023-02-02T18:27:42.913Z,4.90
2023-02-02T18:30:11.614Z,6.80
2023-02-02T18:32:40.203Z,3.33
2023-02-02T18:35:09.178Z,5.80
2023-02-02T18:37:37.342Z,9.43
2023-02-02T18:40:07.784Z,5.93
2023-02-02T18:42:36.836Z,7.10
2023-02-02T18:45:05.025Z,8.10
2023-02-02T18:47:32.303Z,6.20
2023-02-02T18:49:59.668Z,5.50
2023-02-02T18:52:27.041Z,7.10
2023-02-02T18:54:54.425Z,7.10
2023-02-02T18:57:21.718Z,5.67
2023-02-02T18:59:52.716Z,6.63
2023-02-02T19:02:20.223Z,7.37
2023-02-02T19:04:47.506Z,5.73
2023-02-02T19:07:14.743Z,5.80
2023-02-02T19:09:42.049Z,7.93
2023-02-02T19:12:12.931Z,7.53
2023-02-02T19:14:40.705Z,7.30
2023-02-02T19:17:20.162Z,7.57
2023-02-02T19:19:48.421Z,7.80
2023-02-02T19:22:19.573Z,8.07
2023-02-02T19:24:46.890Z,8.00
2023-02-02T19:27:17.443Z,8.60
2023-02-02T19:29:45.985Z,8.07
2023-02-02T19:32:16.772Z,8.87
2023-02-02T19:34:44.308Z,9.03
2023-02-02T19:37:22.906Z,9.00
2023-02-02T19:39:50.383Z,9.60
2023-02-02T19:42:17.805Z,9.30
2023-02-02T19:44:45.347Z,9.07
2023-02-02T19:47:24.994Z,11.03
2023-02-02T19:49:52.431Z,11.03
2023-02-02T19:52:23.472Z,9.40
2023-02-02T19:54:50.980Z,8.63
2023-02-02T19:57:24.259Z,9.20
2023-02-02T19:59:52.453Z,7.70
2023-02-02T20:02:48.615Z,8.77
2023-02-02T20:05:20.121Z,9.00
2023-02-02T20:07:48.185Z,7.83
2023-02-02T20:10:20.486Z,9.03
2023-02-02T20:12:47.945Z,10.77
2023-02-02T20:15:28.309Z,9.97
2023-02-02T20:17:59.890Z,8.33
2023-02-02T20:20:29.266Z,11.10
2023-02-02T20:22:57.311Z,9.70
2023-02-02T20:25:24.783Z,10.67
2023-02-02T20:27:52.317Z,10.83
2023-02-02T20:30:23.998Z,10.57
2023-02-02T20:32:54.116Z,10.20
2023-02-02T20:35:32.974Z,11.47
2023-02-02T20:38:01.699Z,11.50
2023-02-02T20:40:30.030Z,11.80
2023-02-02T20:42:57.403Z,10.13
2023-02-02T20:45:25.506Z,12.10
2023-02-02T20:47:53.395Z,11.90
2023-02-02T20:50:22.044Z,8.50
2023-02-02T20:52:50.817Z,11.83
2023-02-02T20:55:18.104Z,14.20
2023-02-02T20:57:45.440Z,12.97
2023-02-02T21:00:16.063Z,11.30
2023-02-02T21:02:43.484Z,14.10
2023-02-02T21:05:10.822Z,13.40
2023-02-02T21:07:38.233Z,12.27
2023-02-02T21:10:08.973Z,11.57
2023-02-02T21:12:36.322Z,12.77
2023-02-02T21:15:04.019Z,13.70
2023-02-02T21:17:31.507Z,14.77
2023-02-02T21:19:58.858Z,14.03
2023-02-02T21:22:26.163Z,13.37
2023-02-02T21:24:53.624Z,11.20
2023-02-02T21:27:22.417Z,15.20
2023-02-02T21:29:49.736Z,13.40
2023-02-02T21:32:17.072Z,14.60
2023-02-02T21:34:44.311Z,15.60
2023-02-02T21:37:14.186Z,14.20
2023-02-02T21:39:42.801Z,15.60
2023-02-02T21:42:13.740Z,18.27
2023-02-02T21:44:44.819Z,17.73
2023-02-02T21:47:29.799Z,17.00
2023-02-02T21:49:59.197Z,16.00
2023-02-02T21:52:32.986Z,16.17
2023-02-02T21:55:00.766Z,17.87
2023-02-02T21:57:35.706Z,18.27
2023-02-02T22:00:22.398Z,15.97
2023-02-02T22:02:50.147Z,25.40
2023-02-02T22:05:22.353Z,18.07
2023-02-02T22:07:50.679Z,12.63
2023-02-02T22:10:36.362Z,13.73
2023-02-02T22:13:14.267Z,12.80
2023-02-02T22:15:43.995Z,12.47
2023-02-02T22:18:13.876Z,13.10
2023-02-02T22:20:41.263Z,11.93
2023-02-02T22:23:10.374Z,13.57
2023-02-02T22:25:40.030Z,12.37
2023-02-02T22:28:16.790Z,13.67
2023-02-02T22:30:45.925Z,12.43
2023-02-02T22:33:13.816Z,10.60
2023-02-02T22:35:41.699Z,7.97
2023-02-02T22:38:09.972Z,9.50
2023-02-02T22:40:37.491Z,9.80
2023-02-02T22:43:07.016Z,10.10
2023-02-02T22:45:34.776Z,10.33
2023-02-02T22:48:03.927Z,10.30
2023-02-02T22:50:32.097Z,10.30
2023-02-02T22:52:59.419Z,10.70
2023-02-02T22:55:26.958Z,10.67
2023-02-02T22:57:54.359Z,8.80
2023-02-02T23:00:23.385Z,10.37
2023-02-02T23:02:51.057Z,9.63
2023-02-02T23:05:21.289Z,9.90
2023-02-02T23:07:49.378Z,12.30
2023-02-02T23:10:18.771Z,10.77
2023-02-02T23:12:46.761Z,7.53
2023-02-02T23:15:14.264Z,9.30
2023-02-02T23:17:41.909Z,10.37
2023-02-02T23:20:12.403Z,11.13
2023-02-02T23:22:41.129Z,10.00
2023-02-02T23:25:09.065Z,8.10
2023-02-02T23:27:36.358Z,11.37
2023-02-02T23:30:05.684Z,10.73
2023-02-02T23:32:33.011Z,10.67
2023-02-02T23:35:00.455Z,10.53
2023-02-02T23:37:27.716Z,8.43
2023-02-02T23:39:56.440Z,9.10
2023-02-02T23:42:23.929Z,9.30
2023-02-02T23:44:51.589Z,9.80
2023-02-02T23:47:19.268Z,7.43
2023-02-02T23:49:46.802Z,9.63
2023-02-02T23:52:14.644Z,8.97
2023-02-02T23:54:42.294Z,9.27
2023-02-02T23:57:11.228Z,5.70
2023-02-02T23:59:38.658Z,8.53
